Time;durP1;ratioP1;P1;durP2;ratioP2;P2;SDS_P1;SDS_P2;PMS_P1;PMS_P2;Temp;Humidity;BMP_temperature;BMP_pressure;BME280_temperature;BME280_humidity;BME280_pressure;Samples;Min_cycle;Max_cycle;Signal;HPM_P1;HPM_P2
2022/01/17 00:00:15;;;;;;;75.75;30.75;;;5.60;99.90;;;;;;6246336;23;20095;-71
2022/01/17 00:02:43;;;;;;;78.68;31.45;;;5.60;99.90;;;;;;6246541;23;20004;-72
2022/01/17 00:05:10;;;;;;;91.13;34.13;;;5.70;99.90;;;;;;6219475;23;20008;-72
2022/01/17 00:07:37;;;;;;;89.93;32.97;;;5.60;99.90;;;;;;6246364;23;20008;-72
2022/01/17 00:10:06;;;;;;;90.90;31.33;;;5.50;99.90;;;;;;6246716;23;20011;-72
2022/01/17 00:12:36;;;;;;;78.97;29.38;;;5.50;99.90;;;;;;6246374;23;20007;-71
2022/01/17 00:15:57;;;;;;;78.70;30.15;;;5.40;99.90;;;;;;6246474;23;20008;-72
2022/01/17 00:18:20;;;;;;;83.03;32.30;;;5.40;99.90;;;;;;6240436;23;20012;-72
2022/01/17 00:20:45;;;;;;;81.60;28.17;;;5.50;99.90;;;;;;6245907;23;20066;-72
2022/01/17 00:23:16;;;;;;;78.43;29.80;;;5.50;99.90;;;;;;6246677;23;20050;-72
2022/01/17 00:25:43;;;;;;;81.05;30.98;;;5.50;99.90;;;;;;6219644;23;20008;-72
2022/01/17 00:28:10;;;;;;;73.13;28.52;;;5.50;99.90;;;;;;6246343;23;20006;-72
2022/01/17 00:30:37;;;;;;;68.38;28.77;;;5.40;99.90;;;;;;6246137;23;20012;-72
2022/01/17 00:33:03;;;;;;;82.18;29.40;;;5.50;99.90;;;;;;6246260;23;20008;-72
2022/01/17 00:35:30;;;;;;;80.68;31.08;;;5.40;99.90;;;;;;6246800;23;20032;-72
2022/01/17 00:37:56;;;;;;;79.78;33.00;;;5.50;99.90;;;;;;6246453;23;20012;-72
2022/01/17 00:40:25;;;;;;;69.90;29.15;;;5.50;99.90;;;;;;6246124;23;20016;-72
2022/01/17 00:42:52;;;;;;;78.60;28.10;;;5.50;99.90;;;;;;6246159;23;20008;-72
2022/01/17 00:45:24;;;;;;;79.07;31.40;;;5.50;99.90;;;;;;6246520;23;20087;-72
2022/01/17 00:47:51;;;;;;;70.57;30.00;;;5.50;99.90;;;;;;6246646;23;20075;-72
2022/01/17 00:50:18;;;;;;;75.30;29.52;;;5.40;99.90;;;;;;6246059;23;20000;-72
2022/01/17 00:52:45;;;;;;;83.05;33.70;;;5.40;99.90;;;;;;6246079;23;20008;-72
2022/01/17 00:55:11;;;;;;;97.95;36.25;;;5.40;99.90;;;;;;6246151;23;20007;-72
2022/01/17 00:57:38;;;;;;;92.07;34.47;;;5.40;99.90;;;;;;6246121;23;20054;-72
2022/01/17 01:00:06;;;;;;;112.95;37.08;;;5.40;99.90;;;;;;6245970;23;20014;-72
2022/01/17 01:02:34;;;;;;;117.85;39.67;;;5.40;99.90;;;;;;6246101;23;20020;-72
2022/01/17 01:05:01;;;;;;;135.73;41.85;;;5.30;99.90;;;;;;6246385;23;19996;-72
2022/01/17 01:07:28;;;;;;;118.45;42.47;;;5.20;99.90;;;;;;6246014;23;20126;-72
2022/01/17 01:10:05;;;;;;;138.88;44.17;;;5.20;99.90;;;;;;6246030;23;19996;-72
2022/01/17 01:12:32;;;;;;;144.95;45.45;;;5.30;99.90;;;;;;6246496;23;20012;-71
2022/01/17 01:15:00;;;;;;;127.03;41.20;;;5.30;99.90;;;;;;6246289;23;20016;-72
2022/01/17 01:17:36;;;;;;;122.40;40.60;;;5.20;99.90;;;;;;6245985;23;20008;-72
2022/01/17 01:20:33;;;;;;;132.95;42.20;;;5.20;99.90;;;;;;6245716;23;20020;-71
2022/01/17 01:28:31;;;;;;;128.05;44.00;;;5.10;99.90;;;;;;6219163;23;20012;-72
2022/01/17 01:31:00;;;;;;;133.48;43.88;;;5.20;99.90;;;;;;6246074;23;20406;-71
2022/01/17 01:33:40;;;;;;;126.50;39.97;;;5.20;99.90;;;;;;6219875;23;20012;-71
2022/01/17 01:36:13;;;;;;;118.28;44.45;;;5.20;99.90;;;;;;6248213;23;20326;-72
2022/01/17 01:38:41;;;;;;;100.90;34.93;;;5.20;99.90;;;;;;6247763;23;20075;-72
2022/01/17 01:41:08;;;;;;;125.53;41.60;;;5.20;99.90;;;;;;6247743;23;20261;-71
2022/01/17 01:43:36;;;;;;;137.82;42.10;;;5.10;99.90;;;;;;6221524;23;20004;-71
2022/01/17 01:46:03;;;;;;;138.15;44.85;;;5.10;99.90;;;;;;6247655;23;20028;-71
2022/01/17 01:48:35;;;;;;;127.40;41.85;;;5.10;99.90;;;;;;6247648;23;20058;-72
2022/01/17 01:51:03;;;;;;;118.68;39.05;;;5.20;99.90;;;;;;6247638;23;20008;-72
2022/01/17 01:53:30;;;;;;;106.18;39.03;;;5.10;99.90;;;;;;6247661;23;20311;-71
2022/01/17 01:55:58;;;;;;;117.03;38.83;;;5.10;99.90;;;;;;6247714;23;20009;-72
2022/01/17 01:58:26;;;;;;;96.32;36.53;;;5.00;99.90;;;;;;6247626;23;20007;-71
2022/01/17 02:00:54;;;;;;;109.15;38.33;;;5.00;99.90;;;;;;6247555;23;20062;-71
2022/01/17 02:03:22;;;;;;;112.20;39.22;;;4.90;99.90;;;;;;6220938;23;20330;-71
2022/01/17 02:05:49;;;;;;;109.90;38.65;;;4.90;99.90;;;;;;6247478;23;20016;-71
2022/01/17 02:08:18;;;;;;;104.28;40.60;;;4.90;99.90;;;;;;6247510;23;20000;-71
2022/01/17 02:10:48;;;;;;;90.40;36.75;;;5.00;99.90;;;;;;6247463;23;20007;-72
2022/01/17 02:13:15;;;;;;;104.93;38.85;;;5.00;99.90;;;;;;6247731;23;20008;-71
2022/01/17 02:15:43;;;;;;;108.75;39.03;;;4.90;99.90;;;;;;6247307;23;20016;-71
2022/01/17 02:18:12;;;;;;;122.88;41.53;;;4.90;99.90;;;;;;6247485;23;20000;-71
2022/01/17 02:20:45;;;;;;;99.88;37.78;;;4.80;99.90;;;;;;6220625;23;20016;-71
2022/01/17 02:23:14;;;;;;;123.28;40.92;;;4.80;99.90;;;;;;6247274;23;20334;-71
2022/01/17 02:25:41;;;;;;;108.68;39.65;;;4.90;99.90;;;;;;6247313;23;20028;-72
2022/01/17 02:28:08;;;;;;;86.78;35.47;;;4.90;99.90;;;;;;6247390;23;20008;-72
2022/01/17 02:30:34;;;;;;;110.57;37.80;;;4.90;99.90;;;;;;6247300;23;19996;-72
2022/01/17 02:33:02;;;;;;;95.72;38.13;;;4.90;99.90;;;;;;6247170;23;20019;-71
2022/01/17 02:35:30;;;;;;;91.30;35.20;;;4.80;99.90;;;;;;6247911;23;20004;-71
2022/01/17 02:37:57;;;;;;;104.13;38.20;;;4.80;99.90;;;;;;6247270;23;20008;-72
2022/01/17 02:40:25;;;;;;;94.93;35.45;;;4.80;99.90;;;;;;6247043;23;20012;-71
2022/01/17 02:43:02;;;;;;;114.55;41.25;;;4.90;99.90;;;;;;6247297;23;20342;-72
2022/01/17 02:46:24;;;;;;;93.38;39.22;;;4.90;99.90;;;;;;6246885;23;20012;-72
2022/01/17 02:48:27;;;;;;;86.82;34.65;;;4.80;99.90;;;;;;6247061;23;20008;-71
2022/01/17 02:50:54;;;;;;;93.03;36.28;;;4.80;99.90;;;;;;6247083;23;20338;-71
2022/01/17 02:53:22;;;;;;;105.25;37.15;;;4.70;99.90;;;;;;6246995;23;20012;-71
2022/01/17 02:55:55;;;;;;;89.90;37.45;;;4.70;99.90;;;;;;6220308;23;20330;-72
2022/01/17 02:58:24;;;;;;;113.17;38.23;;;4.70;99.90;;;;;;6247002;23;20430;-72
2022/01/17 03:00:54;;;;;;;105.85;38.55;;;4.70;99.90;;;;;;6219981;23;20107;-72
2022/01/17 03:03:24;;;;;;;119.80;41.95;;;4.70;99.90;;;;;;6246981;23;20015;-71
2022/01/17 03:05:52;;;;;;;123.22;41.10;;;4.70;99.90;;;;;;6246960;23;20008;-72
2022/01/17 03:08:20;;;;;;;124.10;41.25;;;4.70;99.90;;;;;;6246913;23;20004;-71
2022/01/17 03:10:51;;;;;;;128.68;42.22;;;4.60;99.90;;;;;;6220126;23;20012;-72
2022/01/17 03:13:21;;;;;;;148.68;44.38;;;4.60;99.90;;;;;;6220630;23;20000;-71
2022/01/17 03:15:58;;;;;;;157.80;41.78;;;4.50;99.90;;;;;;6214789;23;20143;-71
2022/01/17 03:18:27;;;;;;;171.52;45.25;;;4.50;99.90;;;;;;6216597;23;20011;-72
2022/01/17 03:20:54;;;;;;;152.70;46.63;;;4.50;99.90;;;;;;6216329;23;20013;-71
2022/01/17 03:23:22;;;;;;;164.80;45.47;;;4.50;99.90;;;;;;6216391;23;20096;-71
2022/01/17 03:25:48;;;;;;;130.95;42.00;;;4.50;99.90;;;;;;6216433;23;20004;-71
2022/01/17 03:28:15;;;;;;;133.63;40.88;;;4.50;99.90;;;;;;6216558;23;20001;-71
2022/01/17 03:30:42;;;;;;;107.50;36.90;;;4.50;99.90;;;;;;6216367;23;20011;-71
2022/01/17 03:33:13;;;;;;;96.82;33.60;;;4.60;99.90;;;;;;6216435;23;20001;-71
2022/01/17 03:35:40;;;;;;;88.80;31.38;;;4.60;99.90;;;;;;6216335;23;20009;-71
2022/01/17 03:38:09;;;;;;;75.00;28.15;;;4.60;99.90;;;;;;6216349;23;20008;-72
2022/01/17 03:40:38;;;;;;;85.53;30.25;;;4.60;99.90;;;;;;6216245;23;20017;-71
2022/01/17 03:43:06;;;;;;;89.70;30.52;;;4.60;99.90;;;;;;6216693;23;20004;-71
2022/01/17 03:45:33;;;;;;;83.05;28.38;;;4.60;99.90;;;;;;6216272;23;20004;-71
2022/01/17 03:47:59;;;;;;;69.82;27.70;;;4.60;99.90;;;;;;6216344;23;20000;-71
2022/01/17 03:50:27;;;;;;;78.55;30.05;;;4.60;99.90;;;;;;6216169;23;20091;-71
2022/01/17 03:52:54;;;;;;;76.70;28.52;;;4.60;99.90;;;;;;6216254;23;20322;-71
2022/01/17 03:55:23;;;;;;;81.55;28.08;;;4.50;99.90;;;;;;6216108;23;20083;-71
2022/01/17 03:57:51;;;;;;;82.35;30.42;;;4.50;99.90;;;;;;6214464;23;20334;-71
2022/01/17 04:00:25;;;;;;;65.28;27.35;;;4.50;99.90;;;;;;6216441;23;20319;-71
2022/01/17 04:02:53;;;;;;;61.65;26.67;;;4.40;99.90;;;;;;6216002;23;20019;-71
2022/01/17 04:05:20;;;;;;;76.70;26.50;;;4.40;99.90;;;;;;6216061;23;20016;-71
2022/01/17 04:07:47;;;;;;;68.25;28.48;;;4.40;99.90;;;;;;6216176;23;20019;-71
2022/01/17 04:10:14;;;;;;;74.30;28.30;;;4.40;99.90;;;;;;6216056;23;20423;-71
2022/01/17 04:12:42;;;;;;;66.75;26.75;;;4.40;99.90;;;;;;6214492;23;20004;-71
2022/01/17 04:15:10;;;;;;;71.50;28.48;;;4.40;99.90;;;;;;6222719;22;20054;-71
2022/01/17 04:17:40;;;;;;;75.75;27.48;;;4.40;99.90;;;;;;6246413;23;20088;-71
2022/01/17 04:20:13;;;;;;;54.22;24.52;;;4.40;99.90;;;;;;6246191;23;20012;-71
2022/01/17 04:22:51;;;;;;;65.05;25.38;;;4.40;99.90;;;;;;6246383;23;20008;-71
2022/01/17 04:25:19;;;;;;;59.33;24.42;;;4.40;99.90;;;;;;6246215;23;20073;-72
2022/01/17 04:27:45;;;;;;;73.00;27.20;;;4.40;99.90;;;;;;6246314;23;20004;-72
2022/01/17 04:30:16;;;;;;;60.83;25.13;;;4.40;99.90;;;;;;6246102;23;20008;-71
2022/01/17 04:32:44;;;;;;;64.95;25.65;;;4.40;99.90;;;;;;6219469;23;20385;-71
2022/01/17 04:35:14;;;;;;;61.72;25.45;;;4.40;99.90;;;;;;6246119;23;20028;-71
2022/01/17 04:37:41;;;;;;;64.57;24.98;;;4.30;99.90;;;;;;6219480;23;20039;-71
2022/01/17 04:40:09;;;;;;;70.93;27.73;;;4.40;99.90;;;;;;6246204;23;20004;-71
2022/01/17 04:42:43;;;;;;;58.85;26.00;;;4.30;99.90;;;;;;6246209;23;20527;-71
2022/01/17 04:45:18;;;;;;;56.70;23.85;;;4.30;99.90;;;;;;6246342;23;20071;-71
2022/01/17 04:47:48;;;;;;;66.20;24.48;;;4.30;99.90;;;;;;6246128;23;20008;-71
2022/01/17 04:50:23;;;;;;;57.65;23.88;;;4.30;99.90;;;;;;6219501;23;20072;-71
2022/01/17 04:52:51;;;;;;;54.30;21.98;;;4.30;99.90;;;;;;6246158;23;20337;-71
2022/01/17 04:55:19;;;;;;;59.25;24.88;;;4.30;99.90;;;;;;6246306;23;20329;-71
2022/01/17 04:57:47;;;;;;;62.45;24.95;;;4.30;99.90;;;;;;6246202;23;20016;-71
2022/01/17 05:00:18;;;;;;;54.65;22.65;;;4.30;99.90;;;;;;6246381;23;20426;-71
2022/01/17 05:02:45;;;;;;;64.53;24.55;;;4.30;99.90;;;;;;6246565;23;20007;-71
2022/01/17 05:05:12;;;;;;;58.75;26.85;;;4.30;99.90;;;;;;6246049;23;20008;-71
2022/01/17 05:07:40;;;;;;;66.72;24.60;;;4.30;99.90;;;;;;6247226;23;20007;-71
2022/01/17 05:10:11;;;;;;;71.35;26.98;;;4.30;99.90;;;;;;6248184;23;20333;-71
2022/01/17 05:12:38;;;;;;;73.60;26.48;;;4.40;99.90;;;;;;6248414;23;20008;-69
2022/01/17 05:15:11;;;;;;;60.75;24.35;;;4.40;99.90;;;;;;6221131;23;20449;-70
2022/01/17 05:17:43;;;;;;;52.33;24.63;;;4.30;99.90;;;;;;6247945;23;20307;-70
2022/01/17 05:20:11;;;;;;;69.30;25.55;;;4.30;99.90;;;;;;6247891;23;20092;-70
2022/01/17 05:22:41;;;;;;;61.78;26.50;;;4.30;99.90;;;;;;6247896;23;20015;-70
2022/01/17 05:25:10;;;;;;;58.03;26.38;;;4.30;99.90;;;;;;6247806;23;20065;-70
2022/01/17 05:27:38;;;;;;;50.95;23.92;;;4.40;99.90;;;;;;6247883;23;20008;-70
2022/01/17 05:30:08;;;;;;;62.00;24.35;;;4.40;99.90;;;;;;6247738;23;20004;-70
2022/01/17 05:32:35;;;;;;;60.85;24.80;;;4.40;99.90;;;;;;6247966;23;20004;-70
2022/01/17 05:35:03;;;;;;;61.05;25.15;;;4.40;99.90;;;;;;6247730;23;20066;-70
2022/01/17 05:37:29;;;;;;;70.18;24.23;;;4.40;99.90;;;;;;6247912;23;20083;-70
2022/01/17 05:39:55;;;;;;;66.75;24.13;;;4.40;99.90;;;;;;6247589;23;20007;-70
2022/01/17 05:42:24;;;;;;;51.72;24.23;;;4.40;99.90;;;;;;6247801;23;20062;-70
2022/01/17 05:44:52;;;;;;;64.20;23.80;;;4.40;99.90;;;;;;6247835;23;20008;-69
2022/01/17 05:47:19;;;;;;;51.88;22.27;;;4.40;99.90;;;;;;6220886;23;20004;-69
2022/01/17 05:49:46;;;;;;;50.20;21.05;;;4.40;99.90;;;;;;6247352;23;20377;-71
2022/01/17 05:52:12;;;;;;;57.42;24.10;;;4.40;99.90;;;;;;6220656;23;20008;-74
2022/01/17 05:54:40;;;;;;;60.83;23.88;;;4.40;99.90;;;;;;6247753;23;20028;-70
2022/01/17 05:57:06;;;;;;;62.20;22.35;;;4.40;99.90;;;;;;6248015;23;20103;-70
2022/01/17 05:59:33;;;;;;;54.70;22.52;;;4.40;99.90;;;;;;6221145;23;20027;-71
2022/01/17 06:01:59;;;;;;;53.45;22.45;;;4.40;99.90;;;;;;6247641;23;20012;-70
2022/01/17 06:04:26;;;;;;;60.70;22.88;;;4.40;99.90;;;;;;6247876;23;20334;-70
2022/01/17 06:06:53;;;;;;;60.75;22.17;;;4.40;99.90;;;;;;6247513;23;20008;-72
2022/01/17 06:09:19;;;;;;;59.65;23.35;;;4.40;99.90;;;;;;6247894;23;20007;-72
2022/01/17 06:11:46;;;;;;;49.47;21.63;;;4.40;99.90;;;;;;6247666;23;20008;-66
2022/01/17 06:14:17;;;;;;;52.17;24.38;;;4.40;99.90;;;;;;6247459;23;20012;-66
2022/01/17 06:16:45;;;;;;;59.10;23.40;;;4.40;99.90;;;;;;6247150;23;20015;-66
2022/01/17 06:19:12;;;;;;;60.58;22.45;;;4.40;99.90;;;;;;6247488;23;20007;-66
2022/01/17 06:21:39;;;;;;;62.58;23.67;;;4.40;99.90;;;;;;6247235;23;20338;-67
2022/01/17 06:24:06;;;;;;;46.92;20.92;;;4.40;99.90;;;;;;6247238;23;20011;-67
2022/01/17 06:26:34;;;;;;;49.17;21.95;;;4.40;99.90;;;;;;6247362;23;20011;-67
2022/01/17 06:29:01;;;;;;;45.92;19.20;;;4.40;99.90;;;;;;6247624;23;20084;-67
2022/01/17 06:31:27;;;;;;;46.25;20.17;;;4.50;99.90;;;;;;6247297;23;20004;-67
2022/01/17 06:33:54;;;;;;;45.28;18.80;;;4.50;99.90;;;;;;6246928;23;20015;-67
2022/01/17 06:36:21;;;;;;;46.38;17.98;;;4.50;99.90;;;;;;6247250;23;20311;-67
2022/01/17 06:38:47;;;;;;;45.17;18.42;;;4.50;99.90;;;;;;6247122;23;20089;-67
2022/01/17 06:41:13;;;;;;;40.13;18.05;;;4.60;99.90;;;;;;6220449;23;20054;-67
2022/01/17 06:43:40;;;;;;;42.58;18.08;;;4.60;99.90;;;;;;6247037;23;20011;-67
2022/01/17 06:46:07;;;;;;;42.53;16.73;;;4.60;99.90;;;;;;6247026;23;20012;-67
2022/01/17 06:48:33;;;;;;;35.45;16.75;;;4.70;99.90;;;;;;6247070;23;20000;-67
2022/01/17 06:51:00;;;;;;;42.20;18.05;;;4.70;99.90;;;;;;6247125;23;20016;-67
2022/01/17 06:53:27;;;;;;;40.70;17.50;;;4.80;99.90;;;;;;6247371;23;20008;-67
2022/01/17 06:55:54;;;;;;;36.53;17.05;;;4.80;99.90;;;;;;6246762;23;20031;-66
2022/01/17 06:58:21;;;;;;;35.22;17.83;;;4.90;99.90;;;;;;6246718;23;20000;-67
2022/01/17 07:00:47;;;;;;;39.50;16.02;;;5.00;99.90;;;;;;6246483;23;20333;-66
2022/01/17 07:03:14;;;;;;;36.13;17.23;;;5.10;99.90;;;;;;6246625;23;20416;-66
2022/01/17 07:05:40;;;;;;;36.15;17.13;;;5.00;99.90;;;;;;6246952;23;20326;-66
2022/01/17 07:08:07;;;;;;;40.53;17.05;;;5.10;99.90;;;;;;6246609;23;20438;-67
2022/01/17 07:10:33;;;;;;;36.85;16.50;;;5.20;99.90;;;;;;6219840;23;20361;-66
2022/01/17 07:13:00;;;;;;;43.45;18.80;;;5.30;99.90;;;;;;6246284;23;20518;-66
2022/01/17 07:15:26;;;;;;;35.63;18.13;;;5.40;99.90;;;;;;6245729;23;20138;-67
2022/01/17 07:17:52;;;;;;;31.85;16.38;;;5.40;99.90;;;;;;6246964;23;20329;-67
2022/01/17 07:20:18;;;;;;;33.47;15.27;;;5.50;99.90;;;;;;6246499;23;20004;-67
2022/01/17 07:22:44;;;;;;;28.02;15.07;;;5.50;99.90;;;;;;6219736;23;20007;-67
2022/01/17 07:25:11;;;;;;;29.98;13.85;;;5.60;99.90;;;;;;6219640;23;20004;-67
2022/01/17 07:27:40;;;;;;;26.83;13.05;;;5.70;99.90;;;;;;6246418;23;20446;-64
2022/01/17 07:30:09;;;;;;;24.15;12.55;;;5.80;99.90;;;;;;6246624;23;20016;-66
2022/01/17 07:32:36;;;;;;;23.02;11.00;;;5.90;99.90;;;;;;6246156;23;20503;-64
2022/01/17 07:35:05;;;;;;;21.98;9.65;;;6.10;99.90;;;;;;6219807;23;20004;-65
2022/01/17 07:37:31;;;;;;;21.92;10.23;;;6.30;99.90;;;;;;6246366;23;20011;-67
2022/01/17 07:39:58;;;;;;;20.30;9.27;;;6.50;99.90;;;;;;6246380;23;20004;-67
2022/01/17 07:42:25;;;;;;;16.52;9.27;;;6.70;99.90;;;;;;6246990;23;20020;-67
2022/01/17 07:44:56;;;;;;;22.60;9.80;;;6.80;99.90;;;;;;6247003;23;20058;-67
2022/01/17 07:47:41;;;;;;;22.88;9.52;;;6.90;99.90;;;;;;6246711;23;20011;-67
2022/01/17 07:50:15;;;;;;;23.83;10.18;;;7.00;99.90;;;;;;6194703;23;20350;-67
2022/01/17 07:52:42;;;;;;;26.73;11.63;;;7.10;99.90;;;;;;6246887;23;20010;-67
2022/01/17 07:55:10;;;;;;;25.35;11.52;;;7.10;99.90;;;;;;6246508;23;20007;-67
2022/01/17 07:57:39;;;;;;;26.15;11.73;;;7.20;99.90;;;;;;6246591;23;20007;-67
2022/01/17 08:00:11;;;;;;;35.80;15.25;;;7.30;99.90;;;;;;6245583;23;20028;-65
2022/01/17 08:02:45;;;;;;;41.53;17.73;;;7.30;99.90;;;;;;6246261;23;20023;-65
2022/01/17 08:05:14;;;;;;;47.33;20.17;;;7.40;99.90;;;;;;6246470;23;20013;-67
2022/01/17 08:07:42;;;;;;;46.15;20.33;;;7.50;99.90;;;;;;6246151;23;20004;-63
2022/01/17 08:10:12;;;;;;;55.50;21.98;;;7.50;99.90;;;;;;6219535;23;20016;-66
2022/01/17 08:12:42;;;;;;;48.38;22.25;;;7.70;99.90;;;;;;6246118;23;20023;-67
2022/01/17 08:15:10;;;;;;;52.50;23.45;;;7.70;99.90;;;;;;6245876;23;20034;-67
2022/01/17 08:17:37;;;;;;;55.53;24.15;;;7.80;99.90;;;;;;6245486;23;20015;-67
2022/01/17 08:20:07;;;;;;;65.90;26.88;;;7.90;99.90;;;;;;6246060;23;20012;-67
2022/01/17 08:22:33;;;;;;;68.07;27.10;;;8.10;99.90;;;;;;6246331;23;20004;-67
2022/01/17 08:24:59;;;;;;;61.55;24.63;;;8.10;99.90;;;;;;6246123;23;20075;-67
2022/01/17 08:27:29;;;;;;;51.92;23.23;;;8.20;99.90;;;;;;6247294;23;20075;-67
2022/01/17 08:29:57;;;;;;;45.47;17.25;;;8.30;99.90;;;;;;6246257;23;20028;-67
2022/01/17 08:32:27;;;;;;;32.75;14.63;;;8.30;99.90;;;;;;6246213;23;20053;-67
2022/01/17 08:34:53;;;;;;;28.80;11.88;;;8.50;99.90;;;;;;6246200;23;20448;-67
2022/01/17 08:37:20;;;;;;;22.25;11.57;;;8.50;99.90;;;;;;6219345;23;20604;-67
2022/01/17 08:39:47;;;;;;;26.80;10.65;;;8.60;99.90;;;;;;6246173;23;20066;-67
2022/01/17 08:42:13;;;;;;;20.30;10.65;;;8.70;99.90;;;;;;6246680;23;20009;-66
2022/01/17 08:44:40;;;;;;;21.48;10.25;;;8.80;99.90;;;;;;6248629;23;19997;-67
2022/01/17 08:47:06;;;;;;;23.48;10.07;;;8.80;99.90;;;;;;6248320;23;20016;-66
2022/01/17 08:49:33;;;;;;;24.27;10.60;;;8.80;99.90;;;;;;6248601;23;20069;-67
2022/01/17 08:51:59;;;;;;;22.63;11.02;;;8.80;99.90;;;;;;6248289;23;20004;-67
2022/01/17 08:54:26;;;;;;;20.42;9.48;;;8.90;99.90;;;;;;6248172;23;20071;-66
2022/01/17 08:56:52;;;;;;;25.80;10.95;;;8.90;99.90;;;;;;6248176;23;20084;-66
2022/01/17 08:59:19;;;;;;;29.50;10.50;;;9.00;99.90;;;;;;6248092;23;20000;-67
2022/01/17 09:01:45;;;;;;;21.88;9.82;;;9.10;99.90;;;;;;6248089;23;20026;-67
2022/01/17 09:04:17;;;;;;;27.85;9.98;;;9.10;99.90;;;;;;6248060;23;20418;-66
2022/01/17 09:06:44;;;;;;;18.50;9.27;;;9.20;99.90;;;;;;6248218;23;20020;-67
2022/01/17 09:09:11;;;;;;;20.33;8.68;;;9.30;99.90;;;;;;6248086;23;20045;-67
2022/01/17 09:11:37;;;;;;;21.77;10.63;;;9.30;99.90;;;;;;6249092;23;20011;-67
2022/01/17 09:14:04;;;;;;;17.67;8.25;;;9.40;99.90;;;;;;6248331;23;20015;-67
2022/01/17 09:16:30;;;;;;;18.67;8.52;;;9.50;99.90;;;;;;6216106;23;20066;-67
2022/01/17 09:18:57;;;;;;;21.02;9.20;;;9.50;99.90;;;;;;6218028;23;20032;-66
2022/01/17 09:21:23;;;;;;;18.95;9.13;;;9.50;99.90;;;;;;6217955;23;20036;-67
2022/01/17 09:23:50;;;;;;;19.73;9.25;;;9.60;99.90;;;;;;6217639;23;20454;-66
2022/01/17 09:26:18;;;;;;;21.45;8.45;;;9.70;99.90;;;;;;6217937;23;20031;-67
2022/01/17 09:28:45;;;;;;;15.30;7.93;;;9.80;99.90;;;;;;6217985;23;20008;-62
2022/01/17 09:31:11;;;;;;;16.35;8.10;;;9.90;99.90;;;;;;6217547;23;20009;-63
2022/01/17 09:33:41;;;;;;;15.63;7.10;;;9.90;99.90;;;;;;6217538;23;20435;-62
2022/01/17 09:36:08;;;;;;;15.88;7.45;;;10.00;99.90;;;;;;6217577;23;20009;-62
2022/01/17 09:38:34;;;;;;;14.35;5.75;;;10.00;99.90;;;;;;6217475;23;20024;-62
2022/01/17 09:41:02;;;;;;;13.93;6.80;;;10.10;99.90;;;;;;6218102;23;20017;-62
2022/01/17 09:43:28;;;;;;;16.55;7.60;;;10.20;99.90;;;;;;6217450;23;19996;-62
2022/01/17 09:45:57;;;;;;;17.10;7.22;;;10.30;99.90;;;;;;6217696;23;20014;-62
2022/01/17 09:48:34;;;;;;;13.48;6.40;;;10.30;99.90;;;;;;6217764;23;20001;-62
2022/01/17 09:51:30;;;;;;;13.52;6.65;;;10.30;99.90;;;;;;6217161;23;20020;-63
2022/01/17 09:53:59;;;;;;;17.52;7.32;;;10.40;99.90;;;;;;6216839;23;20008;-62
2022/01/17 09:56:29;;;;;;;13.02;5.95;;;10.50;99.90;;;;;;6215805;23;20020;-62
2022/01/17 09:58:56;;;;;;;14.40;6.25;;;10.60;99.90;;;;;;6217327;23;20071;-62
2022/01/17 10:01:25;;;;;;;13.98;6.60;;;10.70;99.90;;;;;;6217262;23;20020;-61
2022/01/17 10:03:56;;;;;;;13.07;6.18;;;10.70;99.90;;;;;;6217274;23;20081;-62
2022/01/17 10:06:25;;;;;;;14.23;6.68;;;10.70;99.90;;;;;;6217196;23;20007;-63
2022/01/17 10:09:10;;;;;;;12.27;5.63;;;10.80;99.90;;;;;;6217035;23;19997;-61
2022/01/17 10:11:59;;;;;;;12.77;5.90;;;10.90;99.90;;;;;;6217163;23;20008;-62
2022/01/17 10:14:28;;;;;;;14.27;6.28;;;10.90;99.90;;;;;;6217531;23;20401;-62
2022/01/17 10:16:55;;;;;;;15.93;5.70;;;11.00;99.90;;;;;;6215475;23;20023;-63
2022/01/17 10:19:26;;;;;;;11.85;5.78;;;11.00;99.90;;;;;;6217177;23;20005;-62
2022/01/17 10:21:57;;;;;;;13.98;6.22;;;11.00;99.90;;;;;;6217328;23;20016;-63
2022/01/17 10:35:28;;;;;;;16.55;5.35;;;11.20;99.90;;;;;;6217043;23;20040;-62
2022/01/17 10:38:05;;;;;;;12.97;5.40;;;11.20;99.90;;;;;;6217376;23;20009;-62
2022/01/17 10:40:44;;;;;;;16.58;5.65;;;11.40;99.90;;;;;;6215255;23;20270;-62
2022/01/17 10:43:34;;;;;;;17.00;5.75;;;11.40;99.90;;;;;;6215165;23;20005;-62
2022/01/17 10:46:08;;;;;;;9.77;5.53;;;11.40;99.90;;;;;;6217307;23;20009;-62
2022/01/17 10:48:37;;;;;;;;;;;11.60;99.90;;;;;;6217285;23;20004;-63
2022/01/17 10:51:07;;;;;;;15.32;5.57;;;11.60;99.90;;;;;;6217155;23;19900;-61
2022/01/17 10:53:35;;;;;;;10.77;4.55;;;11.60;99.90;;;;;;6216624;23;20027;-62
2022/01/17 10:56:07;;;;;;;13.88;5.30;;;11.60;99.90;;;;;;6216628;23;20040;-62
2022/01/17 10:58:39;;;;;;;16.05;5.25;;;11.70;99.90;;;;;;6216619;23;20055;-62
2022/01/17 11:01:11;;;;;;;12.43;4.90;;;11.80;99.90;;;;;;6216617;23;20516;-62
2022/01/17 11:03:46;;;;;;;10.02;5.05;;;11.90;99.90;;;;;;6217486;23;20024;-62
2022/01/17 11:06:20;;;;;;;8.48;3.92;;;11.90;99.90;;;;;;6215595;23;20009;-62
2022/01/17 11:08:47;;;;;;;12.70;4.35;;;11.80;99.90;;;;;;6216529;23;20500;-62
2022/01/17 11:11:13;;;;;;;12.30;5.25;;;11.90;99.90;;;;;;6216874;23;20017;-62
2022/01/17 11:13:49;;;;;;;13.55;6.30;;;12.00;99.90;;;;;;6216996;23;20005;-62
2022/01/17 11:16:21;;;;;;;11.57;5.82;;;12.10;99.90;;;;;;6214999;23;20016;-62
2022/01/17 11:18:59;;;;;;;15.27;4.97;;;12.20;99.90;;;;;;6216382;23;20055;-63
2022/01/17 11:21:26;;;;;;;11.05;5.65;;;12.30;99.90;;;;;;6214906;23;20494;-62
2022/01/17 11:23:54;;;;;;;14.25;5.60;;;12.40;99.90;;;;;;6216526;23;19996;-62
2022/01/17 11:26:21;;;;;;;15.10;5.88;;;12.40;99.90;;;;;;6214972;23;20381;-62
2022/01/17 11:28:54;;;;;;;13.52;5.28;;;12.50;99.90;;;;;;6216865;23;20024;-62
2022/01/17 11:31:23;;;;;;;14.80;6.10;;;12.60;99.90;;;;;;6216463;23;20012;-62
2022/01/17 11:33:50;;;;;;;13.30;5.25;;;12.80;99.90;;;;;;6216421;23;20228;-62
2022/01/17 11:36:18;;;;;;;13.63;5.90;;;12.80;99.90;;;;;;6216265;23;20036;-62
2022/01/17 11:38:48;;;;;;;19.45;6.55;;;12.70;99.90;;;;;;6216401;23;20001;-64
2022/01/17 11:41:28;;;;;;;10.70;5.28;;;12.70;99.90;;;;;;6214684;23;20044;-63
2022/01/17 11:44:00;;;;;;;13.85;5.20;;;12.70;99.90;;;;;;6214583;23;20044;-62
2022/01/17 11:46:32;;;;;;;11.80;5.00;;;12.70;99.90;;;;;;6216217;23;20028;-62
2022/01/17 11:49:08;;;;;;;13.13;5.25;;;12.80;99.90;;;;;;6216356;23;20059;-62
2022/01/17 11:51:39;;;;;;;18.58;6.15;;;12.80;99.90;;;;;;6216313;23;20005;-62
2022/01/17 11:54:27;;;;;;;14.57;6.07;;;12.90;99.90;;;;;;6189760;23;20511;-62
2022/01/17 11:57:05;;;;;;;20.05;6.50;;;13.00;99.90;;;;;;6216561;23;20333;-63
2022/01/17 11:59:43;;;;;;;21.00;6.10;;;13.00;99.90;;;;;;6216043;23;20390;-62
2022/01/17 12:02:37;;;;;;;16.30;6.45;;;12.90;99.90;;;;;;6214619;23;20440;-62
2022/01/17 12:05:08;;;;;;;14.13;5.90;;;13.00;99.90;;;;;;6214546;23;20063;-63
2022/01/17 12:07:55;;;;;;;11.55;5.28;;;12.90;99.90;;;;;;6216597;23;20062;-62
2022/01/17 12:10:26;;;;;;;15.98;6.78;;;12.80;99.90;;;;;;6189560;23;20336;-61
2022/01/17 12:13:15;;;;;;;14.63;6.15;;;12.70;99.90;;;;;;6215990;23;20007;-61
2022/01/17 12:16:25;;;;;;;13.57;5.53;;;12.60;99.90;;;;;;6225938;23;20017;-62
2022/01/17 12:19:03;;;;;;;10.50;5.85;;;12.70;99.90;;;;;;6246249;23;20062;-62
2022/01/17 12:21:35;;;;;;;17.27;5.70;;;12.70;99.90;;;;;;6246537;23;20452;-62
2022/01/17 12:24:17;;;;;;;13.13;5.93;;;12.80;99.90;;;;;;6219924;23;20004;-62
2022/01/17 12:27:03;;;;;;;9.82;4.30;;;13.00;99.90;;;;;;6246688;23;20008;-62
2022/01/17 12:29:38;;;;;;;10.50;4.78;;;13.20;99.90;;;;;;6246322;23;20071;-62
2022/01/17 12:32:08;;;;;;;12.35;4.32;;;13.30;99.90;;;;;;6246700;23;20007;-61
2022/01/17 12:34:44;;;;;;;16.92;4.80;;;13.30;99.90;;;;;;6246177;23;20010;-61
2022/01/17 12:37:31;;;;;;;16.73;5.07;;;13.30;99.90;;;;;;6246674;23;20338;-61
2022/01/17 12:40:17;;;;;;;11.00;5.25;;;13.40;99.90;;;;;;6246432;23;20004;-61
2022/01/17 12:43:04;;;;;;;14.88;5.55;;;13.40;99.90;;;;;;6246242;23;20338;-61
2022/01/17 12:45:33;;;;;;;9.88;4.50;;;13.30;99.90;;;;;;6246442;23;20016;-61
2022/01/17 12:48:03;;;;;;;15.20;4.82;;;13.30;99.90;;;;;;6246546;23;20000;-61
2022/01/17 12:50:33;;;;;;;11.07;4.72;;;13.20;99.90;;;;;;6246234;23;20008;-61
2022/01/17 12:53:03;;;;;;;11.77;4.85;;;13.10;99.90;;;;;;6246187;23;20004;-61
2022/01/17 12:55:37;;;;;;;8.68;4.95;;;13.00;99.90;;;;;;6219301;23;20008;-61
2022/01/17 12:58:26;;;;;;;11.68;5.15;;;12.90;99.90;;;;;;6171197;23;20326;-61
2022/01/17 13:00:58;;;;;;;12.20;4.57;;;12.90;99.90;;;;;;6246940;23;20016;-62
2022/01/17 13:03:33;;;;;;;13.23;4.35;;;12.90;99.90;;;;;;6245758;23;20008;-62
2022/01/17 13:06:00;;;;;;;13.07;4.75;;;12.90;99.90;;;;;;6246488;23;20012;-61